Time;durP1;ratioP1;P1;durP2;ratioP2;P2;SDS_P1;SDS_P2;PMS_P1;PMS_P2;Temp;Humidity;BMP_temperature;BMP_pressure;BME280_temperature;BME280_humidity;BME280_pressure;Samples;Min_cycle;Max_cycle;Signal;HPM_P1;HPM_P2
2022/10/27 00:00:21;;;;;;;10.57;5.43;;;;;;;;;;5072023;28;20052;-69
2022/10/27 00:02:48;;;;;;;11.98;5.10;;;;;;;;;;5072542;28;20131;-69
2022/10/27 00:05:14;;;;;;;11.65;5.18;;;;;;;;;;5071900;28;20399;-69
2022/10/27 00:07:40;;;;;;;9.35;5.47;;;;;;;;;;5073110;28;20045;-69
2022/10/27 00:10:06;;;;;;;14.23;5.60;;;;;;;;;;5072250;28;20119;-69
2022/10/27 00:12:33;;;;;;;14.48;5.65;;;;;;;;;;5071958;28;20406;-69
2022/10/27 00:14:59;;;;;;;13.40;5.25;;;;;;;;;;5071935;28;20048;-69
2022/10/27 00:17:25;;;;;;;11.90;5.88;;;;;;;;;;5072260;28;20044;-69
2022/10/27 00:19:51;;;;;;;15.30;5.53;;;;;;;;;;5071995;28;20047;-69
2022/10/27 00:22:17;;;;;;;10.50;5.50;;;;;;;;;;5055108;28;20475;-69
2022/10/27 00:24:43;;;;;;;15.52;6.15;;;;;;;;;;5071930;28;20036;-69
2022/10/27 00:27:09;;;;;;;9.80;5.13;;;;;;;;;;5071824;28;20051;-69
2022/10/27 00:29:35;;;;;;;13.52;5.90;;;;;;;;;;5071664;28;20043;-69
2022/10/27 00:32:01;;;;;;;15.75;5.80;;;;;;;;;;5073384;28;20082;-69
2022/10/27 00:34:27;;;;;;;15.35;5.63;;;;;;;;;;5072028;28;20048;-69
2022/10/27 00:36:53;;;;;;;12.18;5.50;;;;;;;;;;5071475;28;20403;-69
2022/10/27 00:39:19;;;;;;;10.00;5.18;;;;;;;;;;5071770;28;20168;-69
2022/10/27 00:41:45;;;;;;;12.45;5.93;;;;;;;;;;5071860;28;20045;-69
2022/10/27 00:44:27;;;;;;;15.88;6.63;;;;;;;;;;5071088;28;20401;-69
2022/10/27 00:46:53;;;;;;;10.70;5.68;;;;;;;;;;5071341;28;20127;-69
2022/10/27 00:49:23;;;;;;;9.52;5.80;;;;;;;;;;5071270;28;20055;-69
2022/10/27 00:51:51;;;;;;;13.85;7.28;;;;;;;;;;5071412;28;20132;-69
2022/10/27 00:54:18;;;;;;;12.48;6.15;;;;;;;;;;5071264;28;20044;-69
2022/10/27 00:56:45;;;;;;;13.23;5.70;;;;;;;;;;5071471;28;20051;-69
2022/10/27 00:59:11;;;;;;;15.32;7.13;;;;;;;;;;5070861;28;20674;-69
2022/10/27 01:01:37;;;;;;;13.73;6.60;;;;;;;;;;5071113;28;20390;-69
2022/10/27 01:04:04;;;;;;;12.93;7.68;;;;;;;;;;5070885;28;20044;-69
2022/10/27 01:06:30;;;;;;;15.00;6.97;;;;;;;;;;5070438;28;20063;-69
2022/10/27 01:08:57;;;;;;;9.98;7.45;;;;;;;;;;5071295;28;20051;-69
2022/10/27 01:11:23;;;;;;;19.27;7.15;;;;;;;;;;5070878;28;20048;-69
2022/10/27 01:13:49;;;;;;;11.07;6.70;;;;;;;;;;5070405;28;20158;-69
2022/10/27 01:16:25;;;;;;;14.70;7.10;;;;;;;;;;5054451;28;20051;-69
2022/10/27 01:19:09;;;;;;;21.23;7.10;;;;;;;;;;5070924;28;20044;-69
2022/10/27 01:22:02;;;;;;;16.50;7.25;;;;;;;;;;5070376;28;20048;-69
2022/10/27 01:24:43;;;;;;;12.25;6.60;;;;;;;;;;5068949;28;20048;-69
2022/10/27 01:27:21;;;;;;;19.45;7.65;;;;;;;;;;5070182;28;20060;-69
2022/10/27 01:29:50;;;;;;;17.27;6.65;;;;;;;;;;5071784;28;20485;-69
2022/10/27 01:32:16;;;;;;;12.80;6.90;;;;;;;;;;5070649;28;20179;-69
2022/10/27 01:34:47;;;;;;;15.43;7.38;;;;;;;;;;5070181;28;20454;-69
2022/10/27 01:37:18;;;;;;;14.77;7.32;;;;;;;;;;5069924;28;20040;-69
2022/10/27 01:39:56;;;;;;;19.70;7.50;;;;;;;;;;5070646;28;20049;-69
2022/10/27 01:42:28;;;;;;;14.35;7.30;;;;;;;;;;5070231;28;20433;-69
2022/10/27 01:44:54;;;;;;;;;;;;;;;;;;5070685;28;20108;-69
2022/10/27 01:47:20;;;;;;;13.02;7.00;;;;;;;;;;5071502;28;20324;-69
2022/10/27 01:49:46;;;;;;;13.63;7.78;;;;;;;;;;5053037;28;20214;-69
2022/10/27 01:52:31;;;;;;;17.90;7.63;;;;;;;;;;5053471;28;20036;-69
2022/10/27 01:54:57;;;;;;;16.50;7.07;;;;;;;;;;5070291;28;20051;-69
2022/10/27 01:57:31;;;;;;;14.25;7.47;;;;;;;;;;5069461;28;20367;-69
2022/10/27 02:00:04;;;;;;;17.60;8.18;;;;;;;;;;5070148;28;20080;-69
2022/10/27 02:02:37;;;;;;;17.73;7.93;;;;;;;;;;5069841;28;20075;-69
2022/10/27 02:05:03;;;;;;;17.65;7.70;;;;;;;;;;5069316;28;20040;-69
2022/10/27 02:07:29;;;;;;;19.77;8.15;;;;;;;;;;5069704;28;20041;-69
2022/10/27 02:09:58;;;;;;;14.27;7.35;;;;;;;;;;5069994;28;20421;-69
2022/10/27 02:12:27;;;;;;;19.33;8.00;;;;;;;;;;5069391;28;20067;-69
2022/10/27 02:14:55;;;;;;;17.33;7.50;;;;;;;;;;5069714;28;20040;-69
2022/10/27 02:17:22;;;;;;;17.35;7.45;;;;;;;;;;5069842;28;20044;-69
2022/10/27 02:19:50;;;;;;;15.35;7.88;;;;;;;;;;5069515;28;20446;-69
2022/10/27 02:22:16;;;;;;;13.80;7.85;;;;;;;;;;5069862;28;20051;-69
2022/10/27 02:24:42;;;;;;;14.02;8.13;;;;;;;;;;5069691;28;20036;-69
2022/10/27 02:27:12;;;;;;;17.38;6.95;;;;;;;;;;5068985;28;20510;-69
2022/10/27 02:29:40;;;;;;;11.57;8.02;;;;;;;;;;5071073;28;20361;-69
2022/10/27 02:32:08;;;;;;;15.85;7.65;;;;;;;;;;5069790;28;20041;-69
2022/10/27 02:34:35;;;;;;;17.58;7.85;;;;;;;;;;5052831;28;20094;-69
2022/10/27 02:37:02;;;;;;;15.10;7.78;;;;;;;;;;5069467;28;20052;-69
2022/10/27 02:39:28;;;;;;;18.60;8.55;;;;;;;;;;5069374;28;20059;-69
2022/10/27 02:41:54;;;;;;;15.43;8.40;;;;;;;;;;5069363;28;20471;-69
2022/10/27 02:44:20;;;;;;;14.05;8.43;;;;;;;;;;5069676;28;20044;-69
2022/10/27 02:46:46;;;;;;;17.77;8.63;;;;;;;;;;5069418;28;20120;-69
2022/10/27 02:49:12;;;;;;;15.95;8.07;;;;;;;;;;5069163;28;20178;-69
2022/10/27 02:51:39;;;;;;;14.45;8.27;;;;;;;;;;5069527;28;20498;-69
2022/10/27 02:54:05;;;;;;;14.95;8.15;;;;;;;;;;5069480;28;20052;-69
2022/10/27 02:56:31;;;;;;;20.25;8.30;;;;;;;;;;5068881;28;20044;-69
2022/10/27 02:58:57;;;;;;;18.48;7.93;;;;;;;;;;5069294;28;20052;-69
2022/10/27 03:01:23;;;;;;;13.32;7.85;;;;;;;;;;5069513;28;20044;-69
2022/10/27 03:03:49;;;;;;;12.32;7.75;;;;;;;;;;5068879;28;20132;-69
2022/10/27 03:06:15;;;;;;;17.48;8.40;;;;;;;;;;5068984;28;20045;-69
2022/10/27 03:08:41;;;;;;;16.02;8.18;;;;;;;;;;5069343;28;20041;-69
2022/10/27 03:11:07;;;;;;;14.52;8.60;;;;;;;;;;5069197;28;20040;-69
2022/10/27 03:13:33;;;;;;;14.00;8.57;;;;;;;;;;5068947;28;20056;-69
2022/10/27 03:15:59;;;;;;;17.73;8.63;;;;;;;;;;5069267;28;20052;-69
2022/10/27 03:18:25;;;;;;;13.70;8.35;;;;;;;;;;5068895;28;20051;-69
2022/10/27 03:20:51;;;;;;;16.65;7.70;;;;;;;;;;5068932;28;20094;-69
2022/10/27 03:23:17;;;;;;;15.48;8.73;;;;;;;;;;5068999;28;20047;-69
2022/10/27 03:25:44;;;;;;;16.38;8.15;;;;;;;;;;5068311;28;20487;-69
2022/10/27 03:28:11;;;;;;;20.40;8.85;;;;;;;;;;5069030;28;20078;-69
2022/10/27 03:30:37;;;;;;;16.13;7.88;;;;;;;;;;5068950;28;20051;-69
2022/10/27 03:33:03;;;;;;;18.80;8.13;;;;;;;;;;5068814;28;20105;-69
2022/10/27 03:35:29;;;;;;;18.77;8.60;;;;;;;;;;5068972;28;20139;-69
2022/10/27 03:37:56;;;;;;;15.23;7.93;;;;;;;;;;5068843;28;20044;-69
2022/10/27 03:40:22;;;;;;;16.63;7.95;;;;;;;;;;5068296;28;20041;-69
2022/10/27 03:42:48;;;;;;;12.50;7.43;;;;;;;;;;5070389;28;20116;-69
2022/10/27 03:45:14;;;;;;;14.32;7.63;;;;;;;;;;5052141;28;20051;-69
2022/10/27 03:47:40;;;;;;;18.60;9.05;;;;;;;;;;5068282;28;20040;-69
2022/10/27 03:50:07;;;;;;;16.50;8.13;;;;;;;;;;5068726;28;20174;-69
2022/10/27 03:52:33;;;;;;;16.52;8.18;;;;;;;;;;5068493;28;20039;-69
2022/10/27 03:54:59;;;;;;;11.60;7.80;;;;;;;;;;5068752;28;20043;-69
2022/10/27 03:57:25;;;;;;;12.52;7.35;;;;;;;;;;5068886;28;20045;-69
2022/10/27 03:59:51;;;;;;;13.20;7.78;;;;;;;;;;5053240;28;20051;-69
2022/10/27 04:02:17;;;;;;;27.05;8.95;;;;;;;;;;5072669;28;20036;-69
2022/10/27 04:04:43;;;;;;;14.05;7.10;;;;;;;;;;5071812;28;20040;-69
2022/10/27 04:07:09;;;;;;;21.33;7.63;;;;;;;;;;5071885;28;20577;-69
2022/10/27 04:09:35;;;;;;;14.02;7.47;;;;;;;;;;5072305;28;20075;-69
2022/10/27 04:12:01;;;;;;;14.07;7.32;;;;;;;;;;5071569;28;20052;-69
2022/10/27 04:14:27;;;;;;;18.38;7.40;;;;;;;;;;5055417;28;20554;-69
2022/10/27 04:16:53;;;;;;;15.65;7.65;;;;;;;;;;5072041;28;20420;-69
2022/10/27 04:19:20;;;;;;;17.85;7.50;;;;;;;;;;5071629;28;20049;-69
2022/10/27 04:21:47;;;;;;;16.50;8.07;;;;;;;;;;5072326;28;20048;-69
2022/10/27 04:24:13;;;;;;;12.25;7.72;;;;;;;;;;5071795;28;20099;-69
2022/10/27 04:26:39;;;;;;;13.65;7.50;;;;;;;;;;5071279;28;20045;-69
2022/10/27 04:29:05;;;;;;;16.95;7.97;;;;;;;;;;5072049;28;20052;-69
2022/10/27 04:31:31;;;;;;;15.90;7.78;;;;;;;;;;5073315;28;20040;-69
2022/10/27 04:33:58;;;;;;;12.70;8.10;;;;;;;;;;5071372;28;20185;-69
2022/10/27 04:36:24;;;;;;;11.75;7.53;;;;;;;;;;5071623;28;20082;-69
2022/10/27 04:38:50;;;;;;;18.95;7.50;;;;;;;;;;5071652;28;20046;-69
2022/10/27 04:41:16;;;;;;;21.30;8.07;;;;;;;;;;5071110;28;20042;-69
2022/10/27 04:43:42;;;;;;;12.65;7.97;;;;;;;;;;5071438;28;20600;-69
2022/10/27 04:46:08;;;;;;;13.63;8.50;;;;;;;;;;5071620;28;20040;-69
2022/10/27 04:48:34;;;;;;;16.75;8.27;;;;;;;;;;5070899;28;20382;-69
2022/10/27 04:51:01;;;;;;;14.90;7.97;;;;;;;;;;5071571;28;20051;-69
2022/10/27 04:53:27;;;;;;;16.08;8.98;;;;;;;;;;5071784;28;20081;-69
2022/10/27 04:55:53;;;;;;;17.17;9.30;;;;;;;;;;5071271;28;20044;-69
2022/10/27 04:58:20;;;;;;;15.32;9.32;;;;;;;;;;5071806;28;20063;-69
2022/10/27 05:00:47;;;;;;;16.13;9.02;;;;;;;;;;5071204;28;20398;-69
2022/10/27 05:03:13;;;;;;;17.35;9.50;;;;;;;;;;5070932;28;20110;-69
2022/10/27 05:05:39;;;;;;;16.55;9.63;;;;;;;;;;5071100;28;20501;-69
2022/10/27 05:08:05;;;;;;;17.75;9.30;;;;;;;;;;5071414;28;20044;-69
2022/10/27 05:10:33;;;;;;;16.10;9.75;;;;;;;;;;5070247;28;20521;-69
2022/10/27 05:12:59;;;;;;;14.52;10.55;;;;;;;;;;5070225;28;20118;-69
2022/10/27 05:15:25;;;;;;;15.63;10.43;;;;;;;;;;5068578;28;20041;-68
2022/10/27 05:17:51;;;;;;;17.45;10.50;;;;;;;;;;5053246;28;20131;-68
2022/10/27 05:20:18;;;;;;;19.95;10.98;;;;;;;;;;5070365;28;20043;-68
2022/10/27 05:22:44;;;;;;;14.73;10.25;;;;;;;;;;5070659;28;20048;-68
2022/10/27 05:25:10;;;;;;;18.33;11.10;;;;;;;;;;5070100;28;20052;-68
2022/10/27 05:27:36;;;;;;;18.45;11.38;;;;;;;;;;5070307;28;20082;-68
2022/10/27 05:30:03;;;;;;;23.48;12.63;;;;;;;;;;5070657;28;20048;-68
2022/10/27 05:32:29;;;;;;;21.52;12.65;;;;;;;;;;5069922;28;20761;-68
2022/10/27 05:34:56;;;;;;;20.08;12.15;;;;;;;;;;5070576;28;20060;-68
2022/10/27 05:37:22;;;;;;;16.95;11.45;;;;;;;;;;5070590;28;20047;-68
2022/10/27 05:39:48;;;;;;;19.55;12.55;;;;;;;;;;5069534;28;20044;-67
2022/10/27 05:42:14;;;;;;;18.90;11.30;;;;;;;;;;5070850;28;20136;-68
2022/10/27 05:44:40;;;;;;;18.25;11.30;;;;;;;;;;5068496;28;20056;-68
2022/10/27 05:47:06;;;;;;;20.00;12.00;;;;;;;;;;5070222;28;20045;-67
2022/10/27 05:49:32;;;;;;;18.08;11.90;;;;;;;;;;5069723;28;20074;-64
2022/10/27 05:51:58;;;;;;;20.80;12.32;;;;;;;;;;5071238;28;20115;-64
2022/10/27 05:54:24;;;;;;;21.13;12.00;;;;;;;;;;5070522;28;20036;-62
2022/10/27 05:56:50;;;;;;;17.95;12.38;;;;;;;;;;5070878;28;20093;-63
2022/10/27 05:59:16;;;;;;;21.33;12.80;;;;;;;;;;5070981;28;20611;-62
2022/10/27 06:01:43;;;;;;;16.80;12.30;;;;;;;;;;5070280;28;20045;-63
2022/10/27 06:04:09;;;;;;;24.52;13.05;;;;;;;;;;5070710;28;20044;-62
2022/10/27 06:06:35;;;;;;;17.58;11.77;;;;;;;;;;5069100;28;20048;-64
2022/10/27 06:09:01;;;;;;;18.55;11.80;;;;;;;;;;5068092;28;20045;-64
2022/10/27 06:11:27;;;;;;;21.08;12.77;;;;;;;;;;5070636;28;20036;-64
2022/10/27 06:13:53;;;;;;;17.38;11.38;;;;;;;;;;5070000;28;20044;-65
2022/10/27 06:16:26;;;;;;;16.98;12.15;;;;;;;;;;5069964;28;20040;-64
2022/10/27 06:18:52;;;;;;;;;;;;;;;;;;5070620;28;20093;-64
2022/10/27 06:21:18;;;;;;;22.38;11.63;;;;;;;;;;5070236;28;19920;-64
2022/10/27 06:23:46;;;;;;;21.85;12.38;;;;;;;;;;5069850;28;20092;-64
2022/10/27 06:26:12;;;;;;;18.27;11.77;;;;;;;;;;5069685;28;20056;-63
2022/10/27 06:28:39;;;;;;;16.42;11.82;;;;;;;;;;5070098;28;20090;-65
2022/10/27 06:31:05;;;;;;;19.90;11.43;;;;;;;;;;5069321;28;20040;-64
2022/10/27 06:33:31;;;;;;;19.50;11.55;;;;;;;;;;5067062;28;20046;-63
2022/10/27 06:35:57;;;;;;;20.85;12.05;;;;;;;;;;5063959;28;20487;-65
2022/10/27 06:38:23;;;;;;;20.92;11.85;;;;;;;;;;5067390;28;20127;-65
2022/10/27 06:40:49;;;;;;;18.63;11.52;;;;;;;;;;5069560;28;20384;-65
2022/10/27 06:43:15;;;;;;;17.23;10.60;;;;;;;;;;5068986;28;20048;-65
2022/10/27 06:45:45;;;;;;;16.42;10.20;;;;;;;;;;5059164;28;20093;-65
2022/10/27 06:48:11;;;;;;;22.88;11.98;;;;;;;;;;5068861;28;20028;-65
2022/10/27 06:50:37;;;;;;;15.35;11.00;;;;;;;;;;5068611;28;20032;-64
2022/10/27 06:53:03;;;;;;;19.17;10.80;;;;;;;;;;5067771;28;20040;-65
2022/10/27 06:55:30;;;;;;;17.00;10.73;;;;;;;;;;5069392;28;20068;-66
2022/10/27 06:57:56;;;;;;;16.17;10.68;;;;;;;;;;5068200;28;20059;-64
2022/10/27 07:00:22;;;;;;;17.33;10.65;;;;;;;;;;5068964;28;20654;-65
2022/10/27 07:02:48;;;;;;;18.30;10.40;;;;;;;;;;5069016;28;20124;-66
2022/10/27 07:05:14;;;;;;;16.98;10.02;;;;;;;;;;5067884;28;20139;-65
2022/10/27 07:07:45;;;;;;;14.32;9.55;;;;;;;;;;5066935;28;20044;-65
2022/10/27 07:10:11;;;;;;;17.52;9.13;;;;;;;;;;5067897;28;20546;-66
2022/10/27 07:12:37;;;;;;;21.08;10.30;;;;;;;;;;5068433;28;20053;-64
2022/10/27 07:15:03;;;;;;;16.10;9.93;;;;;;;;;;5067201;28;20399;-63
2022/10/27 07:17:30;;;;;;;15.40;9.25;;;;;;;;;;5068011;28;20128;-64
2022/10/27 07:19:56;;;;;;;16.92;9.27;;;;;;;;;;5067868;28;20041;-64
2022/10/27 07:22:22;;;;;;;14.48;9.00;;;;;;;;;;5068278;28;20097;-62
2022/10/27 07:24:48;;;;;;;14.80;9.25;;;;;;;;;;5069346;28;20545;-63
2022/10/27 07:27:14;;;;;;;17.35;8.82;;;;;;;;;;5067865;28;20072;-63
2022/10/27 07:29:40;;;;;;;15.52;9.05;;;;;;;;;;5068715;28;20044;-64
2022/10/27 07:32:06;;;;;;;16.17;9.20;;;;;;;;;;5069252;28;20040;-62
2022/10/27 07:34:32;;;;;;;15.20;8.63;;;;;;;;;;5070150;28;20039;-63
2022/10/27 07:36:58;;;;;;;17.42;9.00;;;;;;;;;;5071816;28;20040;-66
2022/10/27 07:39:24;;;;;;;18.05;9.73;;;;;;;;;;5054225;28;20044;-64
2022/10/27 07:41:50;;;;;;;16.70;9.10;;;;;;;;;;5072739;28;20041;-65
2022/10/27 07:44:16;;;;;;;12.43;8.50;;;;;;;;;;5072716;28;20044;-68
2022/10/27 07:46:42;;;;;;;19.60;9.15;;;;;;;;;;5071632;28;20052;-67
2022/10/27 07:49:08;;;;;;;17.10;7.88;;;;;;;;;;5070882;28;20033;-67
2022/10/27 07:51:34;;;;;;;14.48;8.35;;;;;;;;;;5061066;28;20037;-65
2022/10/27 07:54:00;;;;;;;13.02;8.15;;;;;;;;;;5068451;28;20048;-65
2022/10/27 07:56:26;;;;;;;16.10;8.07;;;;;;;;;;5071436;28;20036;-65
2022/10/27 07:58:52;;;;;;;19.13;9.65;;;;;;;;;;5067629;28;20447;-64
2022/10/27 08:01:18;;;;;;;14.90;7.95;;;;;;;;;;5071264;28;20066;-65
2022/10/27 08:03:44;;;;;;;16.77;8.63;;;;;;;;;;5070430;28;20033;-65
2022/10/27 08:06:10;;;;;;;13.38;8.23;;;;;;;;;;5070453;28;20040;-65
2022/10/27 08:08:36;;;;;;;12.48;7.85;;;;;;;;;;5072267;28;20520;-65
2022/10/27 08:11:02;;;;;;;15.68;9.23;;;;;;;;;;5070841;28;20120;-65
2022/10/27 08:13:28;;;;;;;20.70;9.23;;;;;;;;;;5071620;28;20407;-66
2022/10/27 08:15:58;;;;;;;17.55;8.48;;;;;;;;;;5070717;28;20083;-66
2022/10/27 08:18:24;;;;;;;17.25;9.05;;;;;;;;;;5069977;28;20056;-65
2022/10/27 08:20:50;;;;;;;20.48;8.60;;;;;;;;;;5070912;28;20131;-66
2022/10/27 08:23:19;;;;;;;14.55;7.90;;;;;;;;;;5069664;28;20048;-65
2022/10/27 08:25:45;;;;;;;20.65;8.70;;;;;;;;;;5071148;28;20376;-66
2022/10/27 08:28:12;;;;;;;18.52;7.90;;;;;;;;;;5070976;28;20041;-64
2022/10/27 08:30:38;;;;;;;18.20;8.52;;;;;;;;;;5069656;28;20063;-66
2022/10/27 08:33:04;;;;;;;15.98;8.15;;;;;;;;;;5071297;28;20044;-67
2022/10/27 08:35:32;;;;;;;16.73;7.90;;;;;;;;;;5071377;28;20072;-65
2022/10/27 08:37:59;;;;;;;19.42;7.57;;;;;;;;;;5069177;28;20521;-64
2022/10/27 08:40:27;;;;;;;13.25;7.55;;;;;;;;;;5071738;28;20417;-64
2022/10/27 08:42:53;;;;;;;16.23;7.53;;;;;;;;;;5071411;28;20482;-64
2022/10/27 08:45:29;;;;;;;23.65;7.55;;;;;;;;;;5070671;28;20127;-64
2022/10/27 08:47:57;;;;;;;15.32;8.02;;;;;;;;;;5070812;28;20037;-65
2022/10/27 08:50:24;;;;;;;15.98;7.45;;;;;;;;;;5070249;28;20040;-64
2022/10/27 08:53:04;;;;;;;14.48;7.32;;;;;;;;;;5066906;28;20048;-64
2022/10/27 08:55:36;;;;;;;12.52;7.00;;;;;;;;;;5071474;28;20040;-64
2022/10/27 08:58:09;;;;;;;15.15;6.35;;;;;;;;;;5071523;28;20043;-64
2022/10/27 09:00:56;;;;;;;12.57;7.05;;;;;;;;;;5069563;28;20036;-63
2022/10/27 09:03:43;;;;;;;13.70;6.60;;;;;;;;;;5065257;28;20057;-64
2022/10/27 09:06:15;;;;;;;11.50;6.32;;;;;;;;;;5067282;28;20048;-65
2022/10/27 09:08:48;;;;;;;10.68;6.30;;;;;;;;;;5069581;28;20037;-65
2022/10/27 09:11:32;;;;;;;10.90;6.25;;;;;;;;;;5067048;28;20037;-66
2022/10/27 09:13:58;;;;;;;16.30;6.80;;;;;;;;;;5067066;28;20044;-68
2022/10/27 09:16:48;;;;;;;11.32;6.45;;;;;;;;;;5065713;28;20490;-67
2022/10/27 09:19:34;;;;;;;11.80;6.78;;;;;;;;;;5055372;28;20143;-68
2022/10/27 09:22:01;;;;;;;16.33;6.13;;;;;;;;;;5055771;28;20052;-67
2022/10/27 09:24:29;;;;;;;11.57;5.68;;;;;;;;;;5068684;28;20568;-67
2022/10/27 09:26:57;;;;;;;12.95;6.30;;;;;;;;;;5064668;28;20048;-67
2022/10/27 09:29:24;;;;;;;12.55;5.72;;;;;;;;;;5064475;28;21839;-66
2022/10/27 09:32:13;;;;;;;16.67;5.75;;;;;;;;;;5064555;28;20040;-70
2022/10/27 09:34:48;;;;;;;10.10;5.38;;;;;;;;;;5061279;28;20040;-68
2022/10/27 09:37:18;;;;;;;10.00;5.47;;;;;;;;;;5068032;28;20045;-67
2022/10/27 09:39:48;;;;;;;8.27;5.40;;;;;;;;;;5065902;28;20040;-67
2022/10/27 09:42:15;;;;;;;12.63;5.45;;;;;;;;;;5065706;28;20479;-68
2022/10/27 09:44:46;;;;;;;14.05;5.43;;;;;;;;;;5066556;28;20044;-68
2022/10/27 09:47:12;;;;;;;8.93;4.90;;;;;;;;;;5067371;28;20044;-68
2022/10/27 09:49:39;;;;;;;13.10;4.93;;;;;;;;;;5067988;28;20040;-67
2022/10/27 09:52:12;;;;;;;13.80;4.40;;;;;;;;;;5066802;28;20483;-68
2022/10/27 09:54:41;;;;;;;11.90;4.30;;;;;;;;;;5066384;28;20040;-68
2022/10/27 09:57:18;;;;;;;12.25;4.57;;;;;;;;;;5065973;28;20037;-68
2022/10/27 09:59:49;;;;;;;7.80;4.20;;;;;;;;;;5062616;28;20045;-66
2022/10/27 10:02:24;;;;;;;6.57;3.90;;;;;;;;;;5062174;28;20055;-67
2022/10/27 10:04:50;;;;;;;6.45;3.58;;;;;;;;;;5065598;28;20105;-67
2022/10/27 10:07:33;;;;;;;9.25;3.92;;;;;;;;;;5062826;28;20041;-67
2022/10/27 10:10:02;;;;;;;7.75;3.45;;;;;;;;;;5065784;28;20665;-67
2022/10/27 10:12:28;;;;;;;6.55;3.08;;;;;;;;;;5068625;28;20056;-65
2022/10/27 10:15:09;;;;;;;7.57;3.75;;;;;;;;;;5068419;28;20040;-65
2022/10/27 10:17:36;;;;;;;9.05;3.17;;;;;;;;;;5068656;28;20051;-65
2022/10/27 10:20:02;;;;;;;6.15;3.15;;;;;;;;;;5065142;28;20097;-65
2022/10/27 10:22:29;;;;;;;6.82;2.70;;;;;;;;;;5068044;28;20047;-68
2022/10/27 10:24:58;;;;;;;5.05;2.40;;;;;;;;;;5064448;28;20044;-67
2022/10/27 10:27:28;;;;;;;6.40;2.38;;;;;;;;;;5057104;28;20040;-65
2022/10/27 10:29:55;;;;;;;7.00;2.40;;;;;;;;;;5067131;28;20044;-70
2022/10/27 10:32:22;;;;;;;6.70;2.28;;;;;;;;;;5066516;28;20494;-70
2022/10/27 10:34:52;;;;;;;5.07;2.40;;;;;;;;;;5066535;28;20086;-70
2022/10/27 10:37:38;;;;;;;3.85;1.80;;;;;;;;;;5066899;28;20489;-70
2022/10/27 10:40:15;;;;;;;6.70;1.80;;;;;;;;;;5067510;28;20045;-71
2022/10/27 10:42:45;;;;;;;6.22;1.80;;;;;;;;;;5065905;28;20077;-70
2022/10/27 10:45:20;;;;;;;5.95;1.90;;;;;;;;;;5099358;28;20094;-70
2022/10/27 10:47:47;;;;;;;6.68;2.22;;;;;;;;;;5067538;28;20040;-70
2022/10/27 10:50:13;;;;;;;9.00;1.85;;;;;;;;;;5067212;28;20194;-70
2022/10/27 10:52:45;;;;;;;8.02;1.92;;;;;;;;;;5067010;28;20040;-70
2022/10/27 10:55:20;;;;;;;3.45;1.40;;;;;;;;;;5067245;28;20040;-70
2022/10/27 10:57:47;;;;;;;4.18;1.90;;;;;;;;;;5067008;28;20052;-69
2022/10/27 11:00:15;;;;;;;4.95;1.80;;;;;;;;;;5067655;28;20044;-68
2022/10/27 11:02:41;;;;;;;4.50;1.45;;;;;;;;;;5049824;28;20098;-70
2022/10/27 11:05:18;;;;;;;6.88;1.77;;;;;;;;;;5066766;28;20423;-68
2022/10/27 11:07:45;;;;;;;3.47;1.65;;;;;;;;;;5067750;28;20102;-67
2022/10/27 11:10:23;;;;;;;7.93;1.80;;;;;;;;;;5068076;28;20411;-67
2022/10/27 11:12:49;;;;;;;5.47;1.63;;;;;;;;;;5071755;28;20400;-69
2022/10/27 11:15:27;;;;;;;7.43;1.90;;;;;;;;;;5070522;28;20041;-68
2022/10/27 11:17:58;;;;;;;5.40;1.55;;;;;;;;;;5073025;28;20040;-68
2022/10/27 11:20:26;;;;;;;4.15;2.08;;;;;;;;;;5070261;28;20036;-68
2022/10/27 11:22:52;;;;;;;4.15;1.13;;;;;;;;;;5070111;28;20399;-67
2022/10/27 11:25:24;;;;;;;4.07;1.35;;;;;;;;;;5104715;28;20177;-66
2022/10/27 11:28:03;;;;;;;3.67;1.60;;;;;;;;;;5071682;28;20032;-66
2022/10/27 11:30:29;;;;;;;5.43;1.48;;;;;;;;;;5072318;28;20420;-69
2022/10/27 11:33:10;;;;;;;5.65;1.85;;;;;;;;;;5072260;28;20059;-66
2022/10/27 11:35:43;;;;;;;10.00;2.38;;;;;;;;;;5069863;28;20044;-68
2022/10/27 11:38:11;;;;;;;;;;;;;;;;;;5070629;28;20044;-68
2022/10/27 11:40:51;;;;;;;4.25;1.23;;;;;;;;;;5072659;28;19920;-68
2022/10/27 11:43:36;;;;;;;5.75;1.25;;;;;;;;;;5071700;28;20039;-68
2022/10/27 11:46:21;;;;;;;7.80;1.40;;;;;;;;;;5065516;28;20310;-67
2022/10/27 11:48:47;;;;;;;7.10;1.50;;;;;;;;;;5071998;28;20040;-67
2022/10/27 11:51:16;;;;;;;3.80;1.50;;;;;;;;;;5071771;28;20036;-68
2022/10/27 11:53:42;;;;;;;6.72;1.60;;;;;;;;;;5069689;28;20454;-68
2022/10/27 11:56:17;;;;;;;2.95;1.20;;;;;;;;;;5068667;28;20036;-68
2022/10/27 11:58:53;;;;;;;6.47;1.60;;;;;;;;;;5069474;28;20086;-70
2022/10/27 12:01:19;;;;;;;7.30;1.40;;;;;;;;;;5068920;28;20048;-67
2022/10/27 12:03:54;;;;;;;5.78;1.73;;;;;;;;;;5070024;28;20045;-69
2022/10/27 12:06:28;;;;;;;4.43;1.20;;;;;;;;;;5070167;28;20045;-69
2022/10/27 12:08:57;;;;;;;7.05;1.30;;;;;;;;;;5071250;28;20548;-68
2022/10/27 12:11:31;;;;;;;5.32;1.17;;;;;;;;;;5070854;28;20021;-70
2022/10/27 12:14:00;;;;;;;4.80;1.15;;;;;;;;;;5070218;28;20078;-69
2022/10/27 12:16:29;;;;;;;5.53;1.25;;;;;;;;;;5069223;28;20040;-69
2022/10/27 12:19:02;;;;;;;5.03;1.10;;;;;;;;;;5070216;28;20048;-69
2022/10/27 12:21:36;;;;;;;5.63;1.27;;;;;;;;;;5068346;28;20044;-70
2022/10/27 12:24:25;;;;;;;10.60;1.27;;;;;;;;;;5069461;28;20333;-70
2022/10/27 12:27:15;;;;;;;5.75;1.70;;;;;;;;;;5049933;28;20486;-69
2022/10/27 12:29:44;;;;;;;7.82;1.42;;;;;;;;;;5048120;28;20052;-69
2022/10/27 12:32:13;;;;;;;6.93;1.45;;;;;;;;;;5069336;28;20055;-70
2022/10/27 12:34:42;;;;;;;5.82;1.23;;;;;;;;;;5068658;28;20275;-69
2022/10/27 12:37:08;;;;;;;5.78;1.38;;;;;;;;;;5068041;28;20437;-68
2022/10/27 12:39:49;;;;;;;4.97;1.40;;;;;;;;;;5069694;28;20050;-69
2022/10/27 12:42:18;;;;;;;7.03;1.33;;;;;;;;;;5057104;28;20094;-71
2022/10/27 12:44:52;;;;;;;3.63;1.10;;;;;;;;;;5069463;28;20041;-71
2022/10/27 12:47:21;;;;;;;3.85;1.20;;;;;;;;;;5068717;28;20502;-70
2022/10/27 12:49:55;;;;;;;6.18;1.30;;;;;;;;;;5070073;28;20131;-71
2022/10/27 12:52:23;;;;;;;4.30;1.77;;;;;;;;;;5068850;28;20131;-71
2022/10/27 12:54:49;;;;;;;5.97;1.40;;;;;;;;;;5069714;28;20041;-71
2022/10/27 12:57:15;;;;;;;7.40;1.00;;;;;;;;;;5068986;28;20078;-71
2022/10/27 12:59:53;;;;;;;3.97;1.20;;;;;;;;;;5068945;28;20503;-71
2022/10/27 13:02:23;;;;;;;5.65;1.15;;;;;;;;;;5052683;28;20048;-71
2022/10/27 13:04:52;;;;;;;6.50;1.40;;;;;;;;;;5068948;28;20044;-71
2022/10/27 13:07:37;;;;;;;4.60;1.13;;;;;;;;;;5068139;28;20090;-70
2022/10/27 13:10:21;;;;;;;3.67;1.33;;;;;;;;;;5067442;28;20048;-70
2022/10/27 13:13:07;;;;;;;6.25;1.95;;;;;;;;;;5069207;28;20075;-69
2022/10/27 13:15:35;;;;;;;5.32;1.15;;;;;;;;;;5069723;28;20082;-69
2022/10/27 13:18:01;;;;;;;4.85;1.77;;;;;;;;;;5068611;28;20044;-69
2022/10/27 13:20:47;;;;;;;5.93;1.38;;;;;;;;;;5067976;28;20071;-68
2022/10/27 13:23:19;;;;;;;10.00;1.63;;;;;;;;;;5066471;28;20039;-68
2022/10/27 13:26:06;;;;;;;6.55;1.42;;;;;;;;;;5069867;28;20036;-66
2022/10/27 13:28:35;;;;;;;3.17;1.20;;;;;;;;;;5061424;28;20076;-66
2022/10/27 13:31:03;;;;;;;7.18;1.38;;;;;;;;;;5069966;28;20119;-65
2022/10/27 13:33:30;;;;;;;6.68;1.45;;;;;;;;;;5068187;28;20043;-64
2022/10/27 13:36:29;;;;;;;4.43;1.10;;;;;;;;;;5069072;28;20044;-67
2022/10/27 13:39:13;;;;;;;4.80;1.58;;;;;;;;;;5024442;28;20056;-65
2022/10/27 13:41:51;;;;;;;4.53;1.50;;;;;;;;;;5066541;28;20045;-66
2022/10/27 13:44:26;;;;;;;3.85;1.33;;;;;;;;;;5067732;28;20090;-65
2022/10/27 13:47:02;;;;;;;5.28;1.42;;;;;;;;;;5051208;28;20076;-67
2022/10/27 13:49:40;;;;;;;6.88;1.55;;;;;;;;;;5068384;28;20037;-66
2022/10/27 13:52:15;;;;;;;4.40;1.50;;;;;;;;;;5068330;28;20036;-66
2022/10/27 13:54:53;;;;;;;5.32;1.50;;;;;;;;;;5069901;28;20116;-66
2022/10/27 13:57:28;;;;;;;9.10;1.20;;;;;;;;;;5069949;28;20059;-67
2022/10/27 13:59:59;;;;;;;8.55;1.40;;;;;;;;;;5070645;28;20032;-65
2022/10/27 14:02:30;;;;;;;5.88;1.63;;;;;;;;;;5072243;28;20165;-65
2022/10/27 14:05:00;;;;;;;2.72;1.10;;;;;;;;;;5070502;28;20036;-65
2022/10/27 14:07:27;;;;;;;6.13;1.65;;;;;;;;;;5070551;28;20036;-66
2022/10/27 14:09:54;;;;;;;8.93;1.67;;;;;;;;;;5071571;28;20446;-66
2022/10/27 14:12:35;;;;;;;12.68;1.48;;;;;;;;;;5076954;28;20538;-67
2022/10/27 14:15:11;;;;;;;4.72;1.45;;;;;;;;;;5079789;28;20537;-65
2022/10/27 14:17:37;;;;;;;6.65;1.42;;;;;;;;;;5071427;28;20068;-64
2022/10/27 14:20:15;;;;;;;5.53;1.40;;;;;;;;;;5074284;28;20072;-66
2022/10/27 14:22:45;;;;;;;9.65;1.70;;;;;;;;;;5082151;28;20105;-68
2022/10/27 14:25:26;;;;;;;5.43;1.35;;;;;;;;;;5070012;28;20044;-69
2022/10/27 14:28:25;;;;;;;7.88;1.85;;;;;;;;;;5040453;28;20067;-67
2022/10/27 14:31:07;;;;;;;7.72;1.88;;;;;;;;;;5042109;28;20088;-65
2022/10/27 14:33:33;;;;;;;3.72;1.30;;;;;;;;;;5068307;28;20036;-66
2022/10/27 14:36:20;;;;;;;7.95;1.55;;;;;;;;;;5069268;28;20112;-71
2022/10/27 14:38:47;;;;;;;6.28;1.75;;;;;;;;;;5068487;28;20037;-67
2022/10/27 14:41:15;;;;;;;5.88;1.63;;;;;;;;;;5068592;28;20048;-69
2022/10/27 14:43:42;;;;;;;9.95;2.00;;;;;;;;;;5067657;28;20109;-69
2022/10/27 14:46:16;;;;;;;8.70;1.88;;;;;;;;;;5079351;28;20569;-68